createdAt,value
2018-08-24T00:01:29.125Z,98640.62
2018-08-24T00:03:57.756Z,98648.58
2018-08-24T00:06:26.547Z,98649.09
2018-08-24T00:08:55.141Z,98639.27
2018-08-24T00:11:23.452Z,98638.02
2018-08-24T00:13:53.220Z,98645.66
2018-08-24T00:16:26.330Z,98640.17
2018-08-24T00:18:54.677Z,98644.72
2018-08-24T00:21:24.658Z,98639.54
2018-08-24T00:23:53.020Z,98637.24
2018-08-24T00:26:21.824Z,98635.56
2018-08-24T00:28:50.162Z,98642.15
2018-08-24T00:31:19.273Z,98638.23
2018-08-24T00:33:54.427Z,98637.69
2018-08-24T00:36:25.131Z,98636.34
2018-08-24T00:38:54.750Z,98645.23
2018-08-24T00:41:23.214Z,98635.05
2018-08-24T00:43:51.796Z,98645.12
2018-08-24T00:46:21.668Z,98639.55
2018-08-24T00:48:49.989Z,98634.42
2018-08-24T00:51:20.069Z,98633.23
2018-08-24T00:53:49.652Z,98642.23
2018-08-24T00:56:18.972Z,98642.66
2018-08-24T00:58:48.792Z,98647.88
2018-08-24T01:01:18.895Z,98642.88
2018-08-24T01:03:47.895Z,98641.34
2018-08-24T01:06:20.372Z,98639.69
2018-08-24T01:08:49.876Z,98632.45
2018-08-24T01:11:19.184Z,98631.77
2018-08-24T01:13:51.552Z,98637.97
2018-08-24T01:16:25.095Z,98638.77
2018-08-24T01:18:54.061Z,98642.15
2018-08-24T01:21:23.310Z,98642.27
2018-08-24T01:23:52.316Z,98641.11
2018-08-24T01:26:24.804Z,98637.64
2018-08-24T01:28:54.869Z,98635.32
2018-08-24T01:31:23.267Z,98647.64
2018-08-24T01:33:51.610Z,98647.61
2018-08-24T01:36:20.323Z,98640.16
2018-08-24T01:38:48.780Z,98633.81
2018-08-24T01:41:17.143Z,98636.58
2018-08-24T01:43:46.007Z,98633.50
2018-08-24T01:46:15.657Z,98627.80
2018-08-24T01:48:44.452Z,98626.99
2018-08-24T01:51:13.860Z,98622.77
2018-08-24T01:53:43.260Z,98624.13
2018-08-24T01:56:12.437Z,98620.63
2018-08-24T01:58:42.383Z,98622.09
2018-08-24T02:01:10.738Z,98621.85
2018-08-24T02:03:39.089Z,98583.71
2018-08-24T02:06:09.756Z,98615.03
2018-08-24T02:08:38.533Z,98618.95
2018-08-24T02:11:12.573Z,98620.84
2018-08-24T02:13:47.244Z,98613.20
2018-08-24T02:16:16.111Z,98615.69
2018-08-24T02:18:50.464Z,98618.20
2018-08-24T02:21:24.748Z,98616.49
2018-08-24T02:23:53.089Z,98616.80
2018-08-24T02:26:21.733Z,98617.50
2018-08-24T02:28:50.158Z,98618.82
2018-08-24T02:31:18.606Z,98621.52
2018-08-24T02:33:46.960Z,98622.17
2018-08-24T02:36:15.307Z,98623.83
2018-08-24T02:38:43.720Z,98621.07
2018-08-24T02:41:14.360Z,98620.16
2018-08-24T02:43:42.738Z,98626.45
2018-08-24T02:46:11.636Z,98624.73
2018-08-24T02:48:40.925Z,98622.24
2018-08-24T02:51:09.960Z,98617.80
2018-08-24T02:53:39.096Z,98617.05
2018-08-24T02:56:07.487Z,98618.64
2018-08-24T02:58:35.816Z,98615.33
2018-08-24T03:01:04.156Z,98610.88
2018-08-24T03:03:32.483Z,98612.28
2018-08-24T03:06:01.539Z,98616.66
2018-08-24T03:08:29.872Z,98609.78
2018-08-24T03:10:59.155Z,98604.66
2018-08-24T03:13:27.463Z,98605.09
2018-08-24T03:15:56.135Z,98601.97
2018-08-24T03:18:25.046Z,98602.53
2018-08-24T03:20:53.723Z,98606.37
2018-08-24T03:23:22.420Z,98601.92
2018-08-24T03:25:51.020Z,98599.89
2018-08-24T03:28:20.492Z,98605.24
2018-08-24T03:30:51.449Z,98609.98
2018-08-24T03:33:20.340Z,98607.41
2018-08-24T03:35:50.765Z,98617.81
2018-08-24T03:38:19.536Z,98611.50
2018-08-24T03:40:47.881Z,98619.50
2018-08-24T03:43:16.317Z,98612.60
2018-08-24T03:45:46.500Z,98617.38
2018-08-24T03:48:16.850Z,98621.34
2018-08-24T03:50:45.559Z,98615.66
2018-08-24T03:53:16.222Z,98611.63
2018-08-24T03:55:46.820Z,98611.31
2018-08-24T03:58:15.201Z,98617.12
2018-08-24T04:00:44.231Z,98620.25
2018-08-24T04:03:15.416Z,98625.12
2018-08-24T04:05:43.740Z,98627.47
2018-08-24T04:08:14.228Z,98626.39
2018-08-24T04:10:43.168Z,98632.58
2018-08-24T04:13:12.017Z,98632.53
2018-08-24T04:15:41.335Z,98637.77
2018-08-24T04:18:10.327Z,98640.45
2018-08-24T04:20:40.074Z,98634.42
2018-08-24T04:23:09.450Z,98638.70
2018-08-24T04:25:38.365Z,98638.63
2018-08-24T04:28:07.175Z,98645.73
2018-08-24T04:30:36.536Z,98644.30
2018-08-24T04:33:04.884Z,98650.59
2018-08-24T04:35:33.893Z,98642.55
2018-08-24T04:38:02.479Z,98646.89
2018-08-24T04:40:31.876Z,98644.42
2018-08-24T04:43:01.401Z,98649.09
2018-08-24T04:45:30.060Z,98647.62
2018-08-24T04:48:01.460Z,98643.31
2018-08-24T04:50:30.612Z,98648.49
2018-08-24T04:52:59.524Z,98652.52
2018-08-24T04:55:28.762Z,98647.28
2018-08-24T04:57:57.447Z,98644.47
2018-08-24T05:00:26.982Z,98643.75
2018-08-24T05:02:55.476Z,98648.70
2018-08-24T05:05:25.538Z,98648.61
2018-08-24T05:07:58.448Z,98647.36
2018-08-24T05:10:27.596Z,98654.33
2018-08-24T05:12:56.536Z,98664.04
2018-08-24T05:15:24.875Z,98660.56
2018-08-24T05:17:53.933Z,98666.00
2018-08-24T05:20:23.371Z,98674.12
2018-08-24T05:22:51.736Z,98679.25
2018-08-24T05:25:20.322Z,98682.70
2018-08-24T05:27:49.173Z,98683.08
2018-08-24T05:30:18.564Z,98688.38
2018-08-24T05:32:47.196Z,98692.72
2018-08-24T05:35:15.804Z,98690.43
2018-08-24T05:37:45.473Z,98693.25
2018-08-24T05:40:14.299Z,98690.80
2018-08-24T05:42:43.420Z,98689.63
2018-08-24T05:45:12.585Z,98690.23
2018-08-24T05:47:41.300Z,98693.74
2018-08-24T05:50:09.656Z,98689.92
2018-08-24T05:52:39.698Z,98688.13
2018-08-24T05:55:12.441Z,98687.28
2018-08-24T05:57:41.605Z,98698.44
2018-08-24T06:00:09.948Z,98696.56
2018-08-24T06:02:38.297Z,98696.05
2018-08-24T06:05:07.504Z,98693.84
2018-08-24T06:07:36.055Z,98694.25
2018-08-24T06:10:04.904Z,98700.66
2018-08-24T06:12:33.326Z,98698.58
2018-08-24T06:15:05.793Z,98703.77
2018-08-24T06:17:40.907Z,98704.71
2018-08-24T06:20:09.665Z,98701.23
2018-08-24T06:22:38.951Z,98702.22
2018-08-24T06:25:10.585Z,98704.58
2018-08-24T06:27:41.654Z,98708.73
2018-08-24T06:30:12.221Z,98708.58
2018-08-24T06:32:41.713Z,98709.92
2018-08-24T06:35:12.269Z,98712.47
2018-08-24T06:37:42.148Z,98721.14
2018-08-24T06:40:10.516Z,98722.81
2018-08-24T06:42:41.492Z,98721.66
2018-08-24T06:45:10.536Z,98726.31
2018-08-24T06:47:39.440Z,98729.67
2018-08-24T06:50:10.269Z,98724.94
2018-08-24T06:52:39.568Z,98729.91
2018-08-24T06:55:10.424Z,98734.03
2018-08-24T06:57:39.372Z,98723.24
2018-08-24T07:00:10.898Z,98722.83
2018-08-24T07:02:40.399Z,98725.38
2018-08-24T07:05:09.218Z,98724.41
2018-08-24T07:07:38.604Z,98731.31
2018-08-24T07:10:07.773Z,98737.12
2018-08-24T07:12:36.196Z,98739.02
2018-08-24T07:15:04.965Z,98746.71
2018-08-24T07:17:38.532Z,98744.95
2018-08-24T07:20:08.776Z,98751.69
2018-08-24T07:22:37.873Z,98760.08
2018-08-24T07:25:06.432Z,98765.89
2018-08-24T07:27:36.503Z,98767.84
2018-08-24T07:30:05.444Z,98770.99
2018-08-24T07:32:34.615Z,98782.25
2018-08-24T07:35:03.340Z,98776.70
2018-08-24T07:37:32.842Z,98783.09
2018-08-24T07:40:02.229Z,98791.27
2018-08-24T07:42:32.653Z,98799.41
2018-08-24T07:45:01.701Z,98805.27
2018-08-24T07:47:31.148Z,98807.59
2018-08-24T07:49:59.483Z,98806.66
2018-08-24T07:52:28.512Z,98814.64
2018-08-24T07:54:57.944Z,98817.96
2018-08-24T07:57:27.527Z,98819.17
2018-08-24T07:59:56.281Z,98814.84
2018-08-24T08:02:31.970Z,98821.44
2018-08-24T08:05:03.523Z,98821.06
2018-08-24T08:07:32.889Z,98828.92
2018-08-24T08:10:02.596Z,98831.19
2018-08-24T08:12:31.151Z,98828.66
2018-08-24T08:15:05.896Z,98839.98
2018-08-24T08:17:34.387Z,98848.18
2018-08-24T08:20:04.709Z,98857.14
2018-08-24T08:22:33.703Z,98849.84
2018-08-24T08:25:02.866Z,98860.41
2018-08-24T08:27:33.868Z,98859.30
2018-08-24T08:30:04.577Z,98860.40
2018-08-24T08:32:33.240Z,98858.03
2018-08-24T08:35:02.288Z,98823.19
2018-08-24T08:37:30.651Z,98857.72
2018-08-24T08:40:01.761Z,98858.24
2018-08-24T08:42:32.876Z,98872.69
2018-08-24T08:45:01.966Z,98865.50
2018-08-24T08:47:32.961Z,98855.66
2018-08-24T08:50:02.033Z,98846.63
2018-08-24T08:52:31.799Z,98857.99
2018-08-24T08:55:00.188Z,98846.42
2018-08-24T08:57:32.858Z,98860.80
2018-08-24T09:00:01.309Z,98879.48
2018-08-24T09:02:31.249Z,98892.16
2018-08-24T09:05:01.126Z,98882.17
2018-08-24T09:07:32.440Z,98876.32
2018-08-24T09:10:01.389Z,98889.41
2018-08-24T09:12:30.556Z,98896.89
2018-08-24T09:15:03.049Z,98901.50
2018-08-24T09:17:37.857Z,98904.96
2018-08-24T09:20:12.176Z,98913.77
2018-08-24T09:22:46.386Z,98910.44
2018-08-24T09:25:21.294Z,98908.52
2018-08-24T09:27:56.686Z,98920.87
2018-08-24T09:30:31.433Z,98923.51
2018-08-24T09:33:03.262Z,98921.91
2018-08-24T09:35:34.211Z,98910.70
2018-08-24T09:38:03.912Z,98915.17
2018-08-24T09:40:39.467Z,98903.80
2018-08-24T09:43:14.412Z,98900.37
2018-08-24T09:45:43.650Z,98904.58
2018-08-24T09:48:18.593Z,98895.27
2018-08-24T09:50:54.252Z,98894.71
2018-08-24T09:53:29.699Z,98889.80
2018-08-24T09:56:01.459Z,98898.53
2018-08-24T09:58:32.589Z,98892.63
2018-08-24T10:01:07.443Z,98892.86
2018-08-24T10:03:42.280Z,98893.05
2018-08-24T10:06:16.010Z,98896.28
2018-08-24T10:08:50.456Z,98890.91
2018-08-24T10:11:23.220Z,98898.55
2018-08-24T10:13:53.391Z,98901.57
2018-08-24T10:16:23.903Z,98899.77
2018-08-24T10:18:53.397Z,98900.14
2018-08-24T10:21:24.646Z,98893.79
2018-08-24T10:23:53.664Z,98900.33
2018-08-24T10:26:24.298Z,98892.95
2018-08-24T10:28:55.733Z,98894.17
2018-08-24T10:31:25.649Z,98896.33
2018-08-24T10:33:56.270Z,98893.72
2018-08-24T10:36:27.774Z,98893.20
2018-08-24T10:38:59.118Z,98881.78
2018-08-24T10:41:30.616Z,98887.23
2018-08-24T10:47:03.455Z,98874.66
2018-08-24T10:49:35.040Z,98879.73
2018-08-24T10:52:05.313Z,98866.56
2018-08-24T10:54:35.340Z,98864.66
2018-08-24T10:57:05.140Z,98857.81
2018-08-24T10:59:34.645Z,98851.47
2018-08-24T11:02:18.765Z,98861.77
2018-08-24T11:04:48.215Z,98860.41
2018-08-24T11:10:02.940Z,98856.48
2018-08-24T11:12:34.802Z,98857.02
2018-08-24T11:15:06.036Z,98859.66
2018-08-24T11:17:40.205Z,98855.00
2018-08-24T11:20:10.508Z,98844.48
2018-08-24T11:22:41.457Z,98854.52
2018-08-24T11:25:12.005Z,98839.20
2018-08-24T11:27:41.494Z,98843.57
2018-08-24T11:30:12.009Z,98844.33
2018-08-24T11:32:41.508Z,98843.02
2018-08-24T11:35:11.086Z,98844.32
2018-08-24T11:37:48.004Z,98834.52
2018-08-24T11:40:18.699Z,98845.09
2018-08-24T11:42:48.178Z,98837.27
2018-08-24T11:45:23.506Z,98832.72
2018-08-24T11:47:53.181Z,98839.08
2018-08-24T11:50:22.866Z,98844.91
2018-08-24T11:52:52.440Z,98841.19
2018-08-24T11:55:23.463Z,98834.42
2018-08-24T11:57:54.057Z,98845.91
2018-08-24T12:00:31.213Z,98840.56
2018-08-24T12:03:03.108Z,98834.08
2018-08-24T12:05:33.483Z,98844.87
2018-08-24T12:08:03.061Z,98839.55
2018-08-24T12:10:32.427Z,98839.47
2018-08-24T12:13:03.470Z,98842.84
2018-08-24T12:15:32.644Z,98832.05
2018-08-24T12:18:02.889Z,98838.59
2018-08-24T12:20:32.058Z,98827.56
2018-08-24T12:23:02.843Z,98827.64
2018-08-24T12:25:32.692Z,98830.33
2018-08-24T12:28:03.617Z,98836.38
2018-08-24T12:30:32.491Z,98838.11
2018-08-24T12:33:01.885Z,98846.23
2018-08-24T12:35:32.918Z,98835.43
2018-08-24T12:38:03.235Z,98828.98
2018-08-24T12:40:33.121Z,98831.56
2018-08-24T12:43:06.214Z,98826.94
2018-08-24T12:45:35.672Z,98815.55
2018-08-24T12:48:05.798Z,98781.37
2018-08-24T12:50:34.251Z,98806.41
2018-08-24T12:53:03.604Z,98807.27
2018-08-24T12:55:31.984Z,98806.63
2018-08-24T12:58:00.923Z,98799.52
2018-08-24T13:00:31.056Z,98801.52
2018-08-24T13:03:00.551Z,98796.89
2018-08-24T13:05:32.349Z,98793.62
2018-08-24T13:08:02.487Z,98787.72
2018-08-24T13:10:32.036Z,98792.17
2018-08-24T13:13:01.458Z,98786.45
2018-08-24T13:15:30.077Z,98787.79
2018-08-24T13:18:02.388Z,98793.22
2018-08-24T13:20:32.388Z,98784.23
2018-08-24T13:23:03.249Z,98783.88
2018-08-24T13:25:33.938Z,98786.16
2018-08-24T13:28:05.174Z,98787.55
2018-08-24T13:30:36.046Z,98782.87
2018-08-24T13:33:05.965Z,98782.82
2018-08-24T13:35:35.428Z,98777.20
2018-08-24T13:38:05.012Z,98778.30
2018-08-24T13:40:33.372Z,98781.02
2018-08-24T13:43:01.908Z,98779.56
2018-08-24T13:45:33.022Z,98772.62
2018-08-24T13:48:02.245Z,98769.46
2018-08-24T13:50:32.274Z,98769.92
2018-08-24T13:53:08.509Z,98773.98
2018-08-24T13:55:38.173Z,98767.98
2018-08-24T13:58:07.828Z,98768.53
2018-08-24T14:00:37.018Z,98769.07
2018-08-24T14:03:05.455Z,98773.13
2018-08-24T14:05:36.437Z,98766.95
2018-08-24T14:08:08.465Z,98768.77
2018-08-24T14:10:38.951Z,98763.83
2018-08-24T14:13:08.163Z,98763.95
2018-08-24T14:15:39.228Z,98764.62
2018-08-24T14:18:07.794Z,98765.95
2018-08-24T14:20:38.826Z,98761.80
2018-08-24T14:23:08.376Z,98763.92
2018-08-24T14:25:38.771Z,98763.23
2018-08-24T14:28:09.167Z,98756.47
2018-08-24T14:30:38.692Z,98753.85
2018-08-24T14:33:08.232Z,98751.23
2018-08-24T14:35:36.664Z,98756.73
2018-08-24T14:38:05.990Z,98753.73
2018-08-24T14:40:34.748Z,98756.25
2018-08-24T14:43:08.109Z,98746.33
2018-08-24T14:45:37.880Z,98745.79
2018-08-24T14:48:07.531Z,98747.39
2018-08-24T14:50:35.844Z,98746.88
2018-08-24T14:53:06.743Z,98747.23
2018-08-24T14:55:35.425Z,98741.41
2018-08-24T14:58:04.673Z,98742.00
2018-08-24T15:00:35.616Z,98745.91
2018-08-24T15:03:05.273Z,98729.25
2018-08-24T15:05:34.374Z,98727.94
2018-08-24T15:08:07.269Z,98725.83
2018-08-24T15:10:38.896Z,98726.33
2018-08-24T15:13:07.536Z,98727.52
2018-08-24T15:15:38.517Z,98723.33
2018-08-24T15:18:07.057Z,98723.77
2018-08-24T15:20:37.570Z,98729.24
2018-08-24T15:23:08.842Z,98723.15
2018-08-24T15:25:38.449Z,98721.59
2018-08-24T15:28:07.897Z,98721.13
2018-08-24T15:30:37.844Z,98720.59
2018-08-24T15:33:08.068Z,98719.66
2018-08-24T15:35:38.698Z,98722.30
2018-08-24T15:38:09.152Z,98722.77
2018-08-24T15:40:39.645Z,98722.33
2018-08-24T15:43:10.436Z,98716.23
2018-08-24T15:45:39.843Z,98721.70
2018-08-24T15:48:10.523Z,98716.84
2018-08-24T15:50:41.599Z,98719.87
2018-08-24T15:53:11.190Z,98718.70
2018-08-24T15:55:44.840Z,98727.78
2018-08-24T15:58:16.060Z,98717.84
2018-08-24T16:00:46.986Z,98717.05
2018-08-24T16:03:16.304Z,98720.00
2018-08-24T16:05:46.112Z,98716.84
2018-08-24T16:08:15.102Z,98723.52
2018-08-24T16:10:45.178Z,98719.37
2018-08-24T16:13:14.285Z,98716.60
2018-08-24T16:15:44.655Z,98718.28
2018-08-24T16:18:18.383Z,98711.10
2018-08-24T16:20:48.856Z,98715.53
2018-08-24T16:23:17.268Z,98714.06
2018-08-24T16:25:47.816Z,98712.05
2018-08-24T16:28:16.359Z,98716.88
2018-08-24T16:30:46.068Z,98709.29
2018-08-24T16:33:14.893Z,98714.81
2018-08-24T16:35:44.710Z,98716.34
2018-08-24T16:38:14.928Z,98725.23
2018-08-24T16:40:44.251Z,98732.23
2018-08-24T16:43:14.137Z,98717.48
2018-08-24T16:45:43.047Z,98725.32
2018-08-24T16:48:11.773Z,98730.47
2018-08-24T16:50:40.725Z,98726.33
2018-08-24T16:53:09.720Z,98718.54
2018-08-24T16:55:39.064Z,98721.28
2018-08-24T16:58:09.286Z,98719.63
2018-08-24T17:00:38.476Z,98718.84
2018-08-24T17:03:07.316Z,98708.81
2018-08-24T17:05:36.582Z,98714.23
2018-08-24T17:08:07.483Z,98707.81
2018-08-24T17:10:39.067Z,98711.97
2018-08-24T17:13:08.149Z,98721.39
2018-08-24T17:15:38.992Z,98718.41
2018-08-24T17:18:08.236Z,98731.56
2018-08-24T17:20:36.649Z,98733.02
2018-08-24T17:23:05.826Z,98734.73
2018-08-24T17:25:34.271Z,98738.76
2018-08-24T17:28:03.224Z,98733.13
2018-08-24T17:30:33.723Z,98747.83
2018-08-24T17:33:03.078Z,98739.55
2018-08-24T17:35:32.503Z,98755.15
2018-08-24T17:38:01.540Z,98757.77
2018-08-24T17:40:31.058Z,98757.16
2018-08-24T17:43:02.805Z,98751.84
2018-08-24T17:45:32.423Z,98756.42
2018-08-24T17:48:00.784Z,98758.11
2018-08-24T17:50:29.884Z,98752.16
2018-08-24T17:52:59.391Z,98755.56
2018-08-24T17:55:28.263Z,98760.39
2018-08-24T17:57:57.864Z,98758.66
2018-08-24T18:00:27.559Z,98758.25
2018-08-24T18:02:56.447Z,98763.19
2018-08-24T18:05:26.041Z,98760.81
2018-08-24T18:07:55.614Z,98766.19
2018-08-24T18:10:24.710Z,98761.03
2018-08-24T18:12:54.478Z,98765.97
2018-08-24T18:15:22.858Z,98769.83
2018-08-24T18:17:51.924Z,98773.02
2018-08-24T18:20:21.932Z,98773.80
2018-08-24T18:22:51.248Z,98773.56
2018-08-24T18:25:34.881Z,98778.72
2018-08-24T18:28:04.982Z,98776.78
2018-08-24T18:30:35.270Z,98776.19
2018-08-24T18:33:03.672Z,98775.78
2018-08-24T18:35:32.778Z,98781.87
2018-08-24T18:38:03.044Z,98786.18
2018-08-24T18:40:32.772Z,98790.72
2018-08-24T18:43:02.625Z,98790.47
2018-08-24T18:45:32.570Z,98792.05
2018-08-24T18:48:02.342Z,98795.02
2018-08-24T18:50:31.604Z,98793.59
2018-08-24T18:53:02.777Z,98792.91
2018-08-24T18:55:32.921Z,98797.88
2018-08-24T18:58:03.204Z,98803.52
2018-08-24T19:00:33.268Z,98812.21
2018-08-24T19:03:02.897Z,98808.05
2018-08-24T19:05:32.378Z,98816.84
2018-08-24T19:08:07.516Z,98812.59
2018-08-24T19:10:42.628Z,98809.98
2018-08-24T19:13:12.476Z,98810.95
2018-08-24T19:15:43.052Z,98823.00
2018-08-24T19:18:16.596Z,98748.85
2018-08-24T19:20:52.204Z,98825.34
2018-08-24T19:23:21.241Z,98833.44
2018-08-24T19:25:51.243Z,98836.69
2018-08-24T19:28:26.901Z,98839.23
2018-08-24T19:31:00.679Z,98839.45
2018-08-24T19:33:29.411Z,98821.75
2018-08-24T19:36:00.283Z,98843.59
2018-08-24T19:38:30.341Z,98849.98
2018-08-24T19:41:04.834Z,98850.03
2018-08-24T19:43:33.874Z,98856.64
2018-08-24T19:46:03.311Z,98857.45
2018-08-24T19:48:37.483Z,98856.59
2018-08-24T19:51:07.181Z,98853.07
2018-08-24T19:53:36.559Z,98857.17
2018-08-24T19:56:07.827Z,98852.40
2018-08-24T19:58:42.116Z,98852.21
2018-08-24T20:01:13.605Z,98853.59
2018-08-24T20:03:46.820Z,98855.96
2018-08-24T20:06:26.723Z,98858.96
2018-08-24T20:09:01.620Z,98857.02
2018-08-24T20:11:33.875Z,98858.90
2018-08-24T20:14:07.228Z,98853.07
2018-08-24T20:16:43.464Z,98860.97
2018-08-24T20:19:12.903Z,98857.64
2018-08-24T20:21:43.070Z,98861.20
2018-08-24T20:24:13.247Z,98857.11
2018-08-24T20:26:42.512Z,98868.51
2018-08-24T20:29:15.479Z,98870.28
2018-08-24T20:31:45.020Z,98865.22
2018-08-24T20:34:19.559Z,98871.77
2018-08-24T20:36:48.872Z,98868.66
2018-08-24T20:39:17.623Z,98872.23
2018-08-24T20:41:48.129Z,98871.33
2018-08-24T20:44:18.543Z,98870.86
2018-08-24T20:46:47.730Z,98870.23
2018-08-24T20:49:17.023Z,98877.16
2018-08-24T20:51:48.579Z,98877.91
2018-08-24T20:54:19.241Z,98874.88
2018-08-24T20:56:48.047Z,98873.90
2018-08-24T20:59:18.245Z,98863.80
2018-08-24T21:01:47.016Z,98866.78
2018-08-24T21:04:15.907Z,98870.29
2018-08-24T21:06:45.522Z,98866.25
2018-08-24T21:09:14.977Z,98864.91
2018-08-24T21:11:44.808Z,98861.97
2018-08-24T21:14:15.570Z,98863.16
2018-08-24T21:16:44.988Z,98853.33
2018-08-24T21:19:14.686Z,98852.52
2018-08-24T21:21:44.348Z,98855.00
2018-08-24T21:24:13.125Z,98855.86
2018-08-24T21:26:50.154Z,98852.30
2018-08-24T21:29:20.503Z,98849.97
2018-08-24T21:31:50.176Z,98857.51
2018-08-24T21:34:25.777Z,98856.55
2018-08-24T21:36:55.916Z,98856.26
2018-08-24T21:39:24.758Z,98853.58
2018-08-24T21:41:54.434Z,98845.91
2018-08-24T21:44:23.888Z,98844.36
2018-08-24T21:46:53.413Z,98848.98
2018-08-24T21:49:22.613Z,98843.19
2018-08-24T21:51:52.248Z,98851.89
2018-08-24T21:54:21.357Z,98842.20
2018-08-24T21:56:50.084Z,98841.05
2018-08-24T21:59:21.517Z,98838.97
2018-08-24T22:01:52.115Z,98839.23
2018-08-24T22:04:21.984Z,98843.70
2018-08-24T22:06:51.068Z,98841.76
2018-08-24T22:09:21.617Z,98838.86
2018-08-24T22:11:52.157Z,98840.70
2018-08-24T22:14:21.626Z,98847.64
2018-08-24T22:16:52.354Z,98848.83
2018-08-24T22:19:22.216Z,98851.67
2018-08-24T22:21:51.719Z,98851.67
2018-08-24T22:24:21.293Z,98847.98
2018-08-24T22:26:58.863Z,98841.17
2018-08-24T22:29:30.636Z,98842.00
2018-08-24T22:32:00.925Z,98841.02
2018-08-24T22:34:34.444Z,98837.98
2018-08-24T22:37:08.912Z,98834.06
2018-08-24T22:39:39.844Z,98832.67
2018-08-24T22:42:10.233Z,98840.47
2018-08-24T22:44:39.636Z,98837.16
2018-08-24T22:47:14.961Z,98834.55
2018-08-24T22:49:51.181Z,98837.48
2018-08-24T22:52:22.463Z,98838.58
2018-08-24T22:54:52.115Z,98843.02
2018-08-24T22:57:22.208Z,98837.48
2018-08-24T22:59:50.898Z,98832.47
2018-08-24T23:02:21.113Z,98827.48
2018-08-24T23:04:50.940Z,98825.28
2018-08-24T23:07:22.187Z,98818.45
2018-08-24T23:09:51.294Z,98819.39
2018-08-24T23:12:20.749Z,98817.75
2018-08-24T23:14:50.415Z,98803.47
2018-08-24T23:17:22.503Z,98815.77
2018-08-24T23:19:52.215Z,98815.45
2018-08-24T23:22:22.373Z,98817.92
2018-08-24T23:24:52.291Z,98811.51
2018-08-24T23:27:24.508Z,98811.89
2018-08-24T23:29:54.177Z,98804.72
2018-08-24T23:32:24.852Z,98796.20
2018-08-24T23:34:55.422Z,98798.75
2018-08-24T23:37:28.217Z,98801.70
2018-08-24T23:39:59.247Z,98799.07
2018-08-24T23:42:28.080Z,98798.50
2018-08-24T23:44:57.677Z,98796.84
2018-08-24T23:47:26.867Z,98794.97
2018-08-24T23:50:00.116Z,98804.48
2018-08-24T23:52:29.436Z,98800.64
2018-08-24T23:54:59.106Z,98801.28
2018-08-24T23:57:29.800Z,98791.22
